createdAt,value
2019-01-04T00:05:20.524Z,-1.06
2019-01-04T00:08:31.408Z,-1.06
2019-01-04T00:11:42.856Z,-0.97
2019-01-04T00:14:53.783Z,-0.97
2019-01-04T00:20:59.245Z,-0.89
2019-01-04T00:24:07.935Z,-0.87
2019-01-04T00:27:16.816Z,-0.73
2019-01-04T00:30:25.506Z,-0.71
2019-01-04T00:32:56.115Z,-0.83
2019-01-04T00:36:04.692Z,-0.93
2019-01-04T00:42:08.344Z,-0.86
2019-01-04T00:45:16.880Z,-0.83
2019-01-04T00:48:25.464Z,-0.78
2019-01-04T00:51:34.575Z,-0.72
2019-01-04T00:54:05.119Z,-0.72
2019-01-04T00:57:13.753Z,-0.77
2019-01-04T01:00:20.992Z,-0.79
2019-01-04T01:03:28.759Z,-0.83
2019-01-04T01:06:37.355Z,-0.82
2019-01-04T01:09:46.640Z,-0.75
2019-01-04T01:12:55.477Z,-0.71
2019-01-04T01:16:03.591Z,-0.79
2019-01-04T01:19:11.594Z,-0.78
2019-01-04T01:22:20.797Z,-0.80
2019-01-04T01:25:32.811Z,-0.81
2019-01-04T01:28:44.611Z,-0.85
2019-01-04T01:31:52.659Z,-0.84
2019-01-04T01:35:03.000Z,-0.89
2019-01-04T01:38:11.809Z,-0.81
2019-01-04T01:41:20.162Z,-0.86
2019-01-04T01:44:29.387Z,-0.90
2019-01-04T01:47:40.563Z,-0.93
2019-01-04T01:50:51.916Z,-0.90
2019-01-04T01:54:02.095Z,-0.82
2019-01-04T01:57:10.560Z,-0.84
2019-01-04T02:02:55.747Z,-0.81
2019-01-04T02:05:46.038Z,-0.77
2019-01-04T02:08:36.276Z,-0.74
2019-01-04T02:11:46.133Z,-0.72
2019-01-04T02:14:54.584Z,-0.61
2019-01-04T02:20:48.539Z,-0.64
2019-01-04T02:30:04.061Z,-0.54
2019-01-04T02:35:38.456Z,-0.55
2019-01-04T02:38:18.150Z,-0.55
2019-01-04T02:47:33.124Z,-0.53
2019-01-04T02:53:36.351Z,-0.58
2019-01-04T02:56:05.083Z,-0.59
2019-01-04T02:59:14.140Z,-0.59
2019-01-04T03:02:24.150Z,-0.62
2019-01-04T03:05:14.131Z,-0.63
2019-01-04T03:08:24.722Z,-0.64
2019-01-04T03:11:35.153Z,-0.66
2019-01-04T03:14:43.896Z,-0.70
2019-01-04T03:17:54.177Z,-0.69
2019-01-04T03:20:42.262Z,-0.72
2019-01-04T03:23:50.898Z,-0.73
2019-01-04T03:26:59.484Z,-0.75
2019-01-04T03:30:08.043Z,-0.70
2019-01-04T03:39:02.242Z,-0.61
2019-01-04T03:42:11.126Z,-0.42
2019-01-04T03:48:30.865Z,-0.52
2019-01-04T03:51:19.534Z,-0.52
2019-01-04T03:54:09.782Z,-0.52
2019-01-04T03:56:59.713Z,-0.53
2019-01-04T04:00:08.284Z,-0.59
2019-01-04T04:02:56.289Z,-0.54
2019-01-04T04:06:05.014Z,-0.54
2019-01-04T04:09:15.241Z,-0.58
2019-01-04T04:12:05.359Z,-0.53
2019-01-04T04:15:15.867Z,-0.51
2019-01-04T04:18:25.169Z,-0.54
2019-01-04T04:21:34.441Z,-0.56
2019-01-04T04:30:49.087Z,-0.66
2019-01-04T04:37:06.330Z,-0.66
2019-01-04T04:40:14.912Z,-0.71
2019-01-04T04:43:25.397Z,-0.74
2019-01-04T04:46:34.338Z,-0.74
2019-01-04T04:49:44.821Z,-0.76
2019-01-04T04:52:56.312Z,-0.77
2019-01-04T04:56:06.810Z,-0.76
2019-01-04T04:59:16.289Z,-0.69
2019-01-04T05:05:34.745Z,-0.69
2019-01-04T05:11:50.346Z,-0.71
2019-01-04T05:14:58.903Z,-0.69
2019-01-04T05:18:07.392Z,-0.63
2019-01-04T05:21:15.883Z,-0.57
2019-01-04T05:27:20.225Z,-0.58
2019-01-04T05:30:28.722Z,-0.47
2019-01-04T05:33:37.374Z,-0.48
2019-01-04T05:36:27.130Z,-0.38
2019-01-04T05:39:16.372Z,-0.48
2019-01-04T05:42:25.120Z,-0.48
2019-01-04T05:45:35.769Z,-0.42
2019-01-04T05:48:46.595Z,-0.51
2019-01-04T05:54:50.759Z,-0.54
2019-01-04T05:57:59.246Z,-0.55
2019-01-04T06:01:07.759Z,-0.47
2019-01-04T06:04:16.400Z,-0.42
2019-01-04T06:07:26.727Z,-0.44
2019-01-04T06:10:35.180Z,-0.47
2019-01-04T06:13:43.681Z,-0.46
2019-01-04T06:16:33.693Z,-0.50
2019-01-04T06:19:44.412Z,-0.52
2019-01-04T06:22:33.533Z,-0.50
2019-01-04T06:28:36.625Z,-0.42
2019-01-04T06:31:26.295Z,-0.47
2019-01-04T06:34:34.785Z,-0.52
2019-01-04T06:37:43.356Z,-0.56
2019-01-04T06:40:52.148Z,-0.60
2019-01-04T06:44:00.948Z,-0.50
2019-01-04T06:46:50.541Z,-0.61
2019-01-04T06:49:59.141Z,-0.65
2019-01-04T06:53:09.553Z,-0.62
2019-01-04T06:55:59.276Z,-0.62
2019-01-04T06:59:07.822Z,-0.58
2019-01-04T07:02:16.415Z,-0.59
2019-01-04T07:05:25.192Z,-0.46
2019-01-04T07:08:13.416Z,-0.49
2019-01-04T07:11:04.589Z,-0.47
2019-01-04T07:14:13.446Z,-0.46
2019-01-04T07:17:21.941Z,-0.49
2019-01-04T07:20:30.390Z,-0.52
2019-01-04T07:26:35.430Z,-0.46
2019-01-04T07:29:25.530Z,-0.42
2019-01-04T07:32:14.947Z,-0.40
2019-01-04T07:35:03.029Z,-0.34
2019-01-04T07:38:11.699Z,-0.36
2019-01-04T07:41:01.444Z,-0.35
2019-01-04T07:43:49.323Z,-0.31
2019-01-04T07:46:37.181Z,-0.33
2019-01-04T07:49:25.134Z,-0.25
2019-01-04T07:51:53.813Z,-0.20
2019-01-04T07:54:41.726Z,-0.27
2019-01-04T07:57:29.800Z,-0.22
2019-01-04T08:00:17.586Z,-0.36
2019-01-04T08:03:05.427Z,-0.37
2019-01-04T08:05:53.354Z,-0.30
2019-01-04T08:08:41.330Z,-0.39
2019-01-04T08:11:29.255Z,-0.33
2019-01-04T08:14:17.171Z,-0.35
2019-01-04T08:17:05.075Z,-0.25
2019-01-04T08:19:53.049Z,-0.25
2019-01-04T08:25:14.800Z,-0.32
2019-01-04T08:28:02.834Z,-0.40
2019-01-04T08:30:50.845Z,-0.39
2019-01-04T08:33:38.688Z,-0.33
2019-01-04T08:36:26.664Z,-0.26
2019-01-04T08:39:14.633Z,-0.23
2019-01-04T08:42:02.586Z,-0.05
2019-01-04T08:44:50.612Z,-0.10
2019-01-04T08:47:38.533Z,-0.20
2019-01-04T08:50:27.945Z,-0.16
2019-01-04T08:53:15.828Z,-0.13
2019-01-04T08:56:03.752Z,0.05
2019-01-04T08:58:51.721Z,0.19
2019-01-04T09:01:39.678Z,0.28
2019-01-04T09:04:27.484Z,0.17
2019-01-04T09:07:15.529Z,0.24
2019-01-04T09:10:03.327Z,0.14
2019-01-04T09:12:51.300Z,0.21
2019-01-04T09:15:39.326Z,0.25
2019-01-04T09:18:27.287Z,-0.08
2019-01-04T09:21:15.252Z,-0.18
2019-01-04T09:24:03.146Z,-0.23
2019-01-04T09:26:50.979Z,-0.17
2019-01-04T09:29:38.938Z,-0.24
2019-01-04T09:32:26.868Z,-0.20
2019-01-04T09:34:55.589Z,-0.14
2019-01-04T09:37:43.387Z,-0.04
2019-01-04T09:40:31.282Z,0.00
2019-01-04T09:43:19.213Z,0.10
2019-01-04T09:46:07.171Z,0.15
2019-01-04T09:48:55.109Z,0.21
2019-01-04T09:51:43.053Z,0.41
2019-01-04T09:54:30.998Z,0.35
2019-01-04T09:57:23.433Z,0.48
2019-01-04T10:00:08.695Z,0.58
2019-01-04T10:02:56.551Z,0.80
2019-01-04T10:08:18.850Z,0.95
2019-01-04T10:11:06.861Z,1.08
2019-01-04T10:13:54.818Z,0.86
2019-01-04T10:16:42.770Z,0.89
2019-01-04T10:19:30.574Z,0.71
2019-01-04T10:22:18.383Z,0.69
2019-01-04T10:25:06.280Z,0.89
2019-01-04T10:27:54.324Z,0.95
2019-01-04T10:31:02.796Z,0.98
2019-01-04T10:33:50.754Z,0.89
2019-01-04T10:36:19.454Z,0.88
2019-01-04T10:39:07.369Z,1.09
2019-01-04T10:41:36.056Z,1.13
2019-01-04T10:44:23.988Z,1.02
2019-01-04T10:47:11.998Z,0.91
2019-01-04T10:49:59.799Z,0.71
2019-01-04T10:52:47.641Z,0.49
2019-01-04T10:55:35.558Z,0.31
2019-01-04T10:58:23.541Z,0.30
2019-01-04T11:01:11.500Z,0.52
2019-01-04T11:03:59.378Z,0.51
2019-01-04T11:06:47.339Z,0.39
2019-01-04T11:09:35.193Z,0.45
2019-01-04T11:15:18.157Z,0.52
2019-01-04T11:18:26.631Z,0.44
2019-01-04T11:21:14.561Z,0.46
2019-01-04T11:24:21.712Z,0.34
2019-01-04T11:27:30.223Z,0.39
2019-01-04T11:30:38.688Z,0.34
2019-01-04T11:33:47.177Z,0.38
2019-01-04T11:36:54.433Z,0.42
2019-01-04T11:40:01.646Z,0.58
2019-01-04T11:43:10.103Z,0.86
2019-01-04T11:46:18.643Z,0.72
2019-01-04T11:49:27.120Z,0.61
2019-01-04T11:52:35.565Z,0.70
2019-01-04T11:55:23.435Z,0.72
2019-01-04T11:58:11.263Z,0.68
2019-01-04T12:00:59.171Z,0.84
2019-01-04T12:03:47.079Z,0.77
2019-01-04T12:06:34.952Z,0.75
2019-01-04T12:09:22.921Z,0.92
2019-01-04T12:12:10.835Z,1.02
2019-01-04T12:14:58.790Z,0.87
2019-01-04T12:17:46.672Z,0.97
2019-01-04T12:23:22.293Z,0.81
2019-01-04T12:26:11.894Z,0.86
2019-01-04T12:28:59.803Z,0.78
2019-01-04T12:31:47.693Z,0.80
2019-01-04T12:34:35.576Z,0.91
2019-01-04T12:37:23.445Z,0.71
2019-01-04T12:40:11.364Z,0.89
2019-01-04T12:42:59.328Z,0.78
2019-01-04T12:45:27.995Z,0.97
2019-01-04T12:48:15.887Z,1.07
2019-01-04T12:51:03.791Z,1.02
2019-01-04T12:53:51.763Z,0.94
2019-01-04T12:56:39.673Z,1.08
2019-01-04T12:59:27.505Z,1.10
2019-01-04T13:02:15.396Z,1.15
2019-01-04T13:05:03.359Z,1.17
2019-01-04T13:07:51.275Z,1.23
2019-01-04T13:10:19.980Z,1.28
2019-01-04T13:13:07.941Z,1.10
2019-01-04T13:15:55.710Z,1.05
2019-01-04T13:18:43.599Z,1.09
2019-01-04T13:21:31.570Z,1.10
2019-01-04T13:24:19.415Z,1.08
2019-01-04T13:27:07.244Z,0.96
2019-01-04T13:29:55.020Z,0.81
2019-01-04T13:32:42.980Z,0.94
2019-01-04T13:35:30.869Z,0.85
2019-01-04T13:37:59.515Z,0.99
2019-01-04T13:40:47.418Z,1.15
2019-01-04T13:43:35.298Z,0.99
2019-01-04T13:46:23.159Z,1.00
2019-01-04T13:49:10.996Z,0.89
2019-01-04T13:51:58.952Z,0.73
2019-01-04T13:54:46.875Z,0.62
2019-01-04T13:57:34.832Z,0.75
2019-01-04T14:00:23.004Z,0.85
2019-01-04T14:03:10.964Z,0.82
2019-01-04T14:06:19.433Z,0.72
2019-01-04T14:08:48.093Z,0.69
2019-01-04T14:11:36.008Z,0.79
2019-01-04T14:16:58.146Z,0.70
2019-01-04T14:19:45.935Z,0.77
2019-01-04T14:22:33.894Z,0.66
2019-01-04T14:25:21.796Z,0.61
2019-01-04T14:28:09.688Z,0.59
2019-01-04T14:30:57.600Z,0.57
2019-01-04T14:33:45.529Z,0.67
2019-01-04T14:36:33.481Z,0.61
2019-01-04T14:39:21.417Z,0.48
2019-01-04T14:41:50.121Z,0.43
2019-01-04T14:44:38.038Z,0.34
2019-01-04T14:47:26.002Z,0.33
2019-01-04T14:50:13.824Z,0.36
2019-01-04T14:55:55.050Z,0.34
2019-01-04T14:58:43.065Z,0.23
2019-01-04T15:01:31.043Z,0.26
2019-01-04T15:04:18.960Z,0.23
2019-01-04T15:07:06.954Z,0.20
2019-01-04T15:09:54.844Z,0.21
2019-01-04T15:12:42.619Z,0.19
2019-01-04T15:15:30.469Z,0.12
2019-01-04T15:18:18.409Z,0.21
2019-01-04T15:20:47.116Z,0.17
2019-01-04T15:23:35.074Z,0.13
2019-01-04T15:26:22.937Z,0.13
2019-01-04T15:29:12.359Z,0.08
2019-01-04T15:32:00.786Z,0.07
2019-01-04T15:34:48.612Z,0.09
2019-01-04T15:37:36.748Z,0.17
2019-01-04T15:40:45.181Z,0.25
2019-01-04T15:43:33.078Z,0.27
2019-01-04T15:46:20.925Z,0.25
2019-01-04T15:49:08.939Z,0.23
2019-01-04T15:51:56.793Z,0.35
2019-01-04T15:54:44.938Z,0.35
2019-01-04T15:57:32.849Z,0.37
2019-01-04T16:00:01.582Z,0.39
2019-01-04T16:08:51.420Z,0.28
2019-01-04T16:11:59.955Z,0.35
2019-01-04T16:14:47.955Z,0.29
2019-01-04T16:17:56.923Z,0.29
2019-01-04T16:20:46.411Z,0.31
2019-01-04T16:23:34.304Z,0.30
2019-01-04T16:26:22.230Z,0.35
2019-01-04T16:32:32.761Z,0.33
2019-01-04T16:38:48.181Z,0.26
2019-01-04T16:44:16.739Z,0.27
2019-01-04T16:47:04.743Z,0.29
2019-01-04T16:49:45.603Z,0.28
2019-01-04T16:52:33.513Z,0.28
2019-01-04T16:55:42.406Z,0.30
2019-01-04T16:58:32.063Z,0.29
2019-01-04T17:01:20.147Z,0.26
2019-01-04T17:04:08.177Z,0.23
2019-01-04T17:06:56.127Z,0.21
2019-01-04T17:10:06.611Z,0.23
2019-01-04T17:13:15.184Z,0.24
2019-01-04T17:16:02.980Z,0.25
2019-01-04T17:18:51.286Z,0.30
2019-01-04T17:21:39.259Z,0.30
2019-01-04T17:24:27.194Z,0.27
2019-01-04T17:26:55.901Z,0.27
2019-01-04T17:29:43.864Z,0.27
2019-01-04T17:32:31.691Z,0.29
2019-01-04T17:35:19.621Z,0.25
2019-01-04T17:38:07.556Z,0.24
2019-01-04T17:40:55.366Z,0.24
2019-01-04T17:43:43.322Z,0.37
2019-01-04T17:46:31.248Z,0.32
2019-01-04T17:49:19.199Z,0.26
2019-01-04T17:52:27.676Z,0.24
2019-01-04T18:00:24.082Z,0.25
2019-01-04T18:03:11.940Z,0.21
2019-01-04T18:05:59.800Z,0.29
2019-01-04T18:11:35.266Z,0.39
2019-01-04T18:14:23.153Z,0.34
2019-01-04T18:20:06.007Z,0.29
2019-01-04T18:26:08.955Z,0.23
2019-01-04T18:29:17.417Z,0.18
2019-01-04T18:32:25.914Z,0.17
2019-01-04T18:35:13.824Z,0.15
2019-01-04T18:38:22.312Z,0.16
2019-01-04T18:41:12.651Z,0.18
2019-01-04T18:44:03.646Z,0.23
2019-01-04T18:49:43.008Z,0.21
2019-01-04T18:52:30.976Z,0.21
2019-01-04T18:55:18.815Z,0.11
2019-01-04T18:58:06.803Z,0.13
2019-01-04T19:01:15.884Z,0.18
2019-01-04T19:04:03.860Z,0.13
2019-01-04T19:06:52.014Z,0.09
2019-01-04T19:09:39.915Z,0.04
2019-01-04T19:12:27.842Z,0.05
2019-01-04T19:14:56.987Z,0.10
2019-01-04T19:17:44.903Z,0.11
2019-01-04T19:20:32.790Z,0.14
2019-01-04T19:23:20.633Z,0.15
2019-01-04T19:26:08.615Z,0.16
2019-01-04T19:28:56.409Z,0.12
2019-01-04T19:31:44.364Z,0.13
2019-01-04T19:34:32.216Z,0.15
2019-01-04T19:37:20.172Z,0.11
2019-01-04T19:40:08.097Z,0.16
2019-01-04T19:42:36.806Z,0.18
2019-01-04T19:45:45.343Z,0.17
2019-01-04T19:48:33.258Z,0.17
2019-01-04T19:51:21.211Z,0.23
2019-01-04T19:54:09.003Z,0.15
2019-01-04T19:56:56.842Z,0.17
2019-01-04T19:59:44.766Z,0.16
2019-01-04T20:05:46.441Z,0.18
2019-01-04T20:09:12.857Z,0.21
2019-01-04T20:12:39.177Z,0.21
2019-01-04T20:16:05.400Z,0.19
2019-01-04T20:19:13.904Z,0.28
2019-01-04T20:22:20.925Z,0.27
2019-01-04T20:25:27.947Z,0.36
2019-01-04T20:28:34.938Z,0.32
2019-01-04T20:31:41.946Z,0.30
2019-01-04T20:34:29.861Z,0.29
2019-01-04T20:37:36.933Z,0.28
2019-01-04T20:40:45.453Z,0.31
2019-01-04T20:43:33.394Z,0.32
2019-01-04T20:46:40.371Z,0.31
2019-01-04T20:49:41.762Z,0.37
2019-01-04T20:52:29.595Z,0.29
2019-01-04T20:55:17.437Z,0.38
2019-01-04T20:58:05.231Z,0.39
2019-01-04T21:01:12.455Z,0.43
2019-01-04T21:04:00.449Z,0.31
2019-01-04T21:15:51.183Z,0.31
2019-01-04T21:18:39.042Z,0.29
2019-01-04T21:21:47.889Z,0.34
2019-01-04T21:24:35.753Z,0.31
2019-01-04T21:27:23.590Z,0.32
2019-01-04T21:33:19.561Z,0.34
2019-01-04T21:36:26.545Z,0.34
2019-01-04T21:39:33.546Z,0.37
2019-01-04T21:42:40.519Z,0.36
2019-01-04T21:45:28.377Z,0.43
2019-01-04T21:48:35.392Z,0.43
2019-01-04T21:51:42.396Z,0.44
2019-01-04T21:54:49.430Z,0.44
2019-01-04T21:57:56.407Z,0.41
2019-01-04T22:00:44.284Z,0.38
2019-01-04T22:03:51.367Z,0.47
2019-01-04T22:09:52.850Z,0.45
2019-01-04T22:13:00.020Z,0.46
2019-01-04T22:16:08.697Z,0.45
2019-01-04T22:19:15.889Z,0.46
2019-01-04T22:22:23.019Z,0.40
2019-01-04T22:25:30.114Z,0.38
2019-01-04T22:34:13.588Z,0.50
2019-01-04T22:39:50.461Z,0.45
2019-01-04T22:42:57.554Z,0.47
2019-01-04T22:45:45.346Z,0.40
2019-01-04T22:48:33.177Z,0.37
2019-01-04T22:51:20.955Z,0.40
2019-01-04T22:54:28.033Z,0.45
2019-01-04T22:57:35.000Z,0.50
2019-01-04T23:00:43.703Z,0.49
2019-01-04T23:03:33.228Z,0.44
2019-01-04T23:06:21.053Z,0.47
2019-01-04T23:09:28.037Z,0.42
2019-01-04T23:12:39.062Z,0.38
2019-01-04T23:15:47.673Z,0.41
2019-01-04T23:21:51.100Z,0.37
2019-01-04T23:24:38.893Z,0.36
2019-01-04T23:27:45.930Z,0.41
2019-01-04T23:30:33.689Z,0.40
2019-01-04T23:33:21.518Z,0.44
2019-01-04T23:41:53.356Z,0.45
2019-01-04T23:47:43.763Z,0.46
2019-01-04T23:50:52.237Z,0.45
2019-01-04T23:53:40.354Z,0.49
2019-01-04T23:56:47.594Z,0.46
2019-01-04T23:59:54.688Z,0.42
